• Join FlightAware (Why Join?)
  • Login
  • US Flag 
08:58AM EDT


 

Airport Tracker/Info


-or-


 

Live Flight TrackerFlight Track Log ✈ N156KT ✈ 12-Jul-2013 ✈ KUAO - KMMV

Flight Track Log - Related Links

Times and Time Zones

All times are in EDT time to prevent confusion due to time zone crossing. See the N156KT flight status page for this flight to view local times or setup timezone preferences in your user account.

Time Position Orientation Groundspeed Altitude Reporting Facility
EDT Latitude Longitude Course Direction KTS MPH feet Rate Location/Type
05:54PM 45.2744 -122.7861 215° Southwest 90 104 1,100  Level Seattle Center
05:55PM 45.2744 -122.8289 270° West 100 115 1,700 540 Climbing Seattle Center
05:56PM 45.2986 -122.8408 341° North 108 124 2,200 420 Climbing Seattle Center
05:57PM 45.3274 -122.9893 215° Southwest  Level FlightAware Approximate
05:57PM 45.3325 -122.8272 16° North 125 144 2,600  Level Seattle Center
05:58PM 45.3027 -123.0140 215° Southwest  Level FlightAware Approximate
05:58PM 45.3486 -122.7992 51° Northeast 122 140 3,000  Level Seattle Center
05:59PM 45.2780 -123.0387 215° Southwest  Level FlightAware Approximate
06:00PM 45.2533 -123.0634 215° Southwest  Level FlightAware Approximate
06:00PM 45.3225 -122.8097 196° South 157 181 3,000  Level Seattle Center
06:01PM 45.3197 -122.8600 266° West 121 139 2,900  Descending Seattle Center
06:02PM 45.3025 -122.9036 241° Southwest 117 135 3,100  Climbing Seattle Center
06:03PM 45.2853 -122.9475 241° Southwest 125 144 3,000 -300 Descending Seattle Center
06:04PM 45.2667 -122.9853 235° Southwest 119 137 2,600 -540 Descending Seattle Center
06:04PM 45.2497 -123.0197 235° Southwest 111 128 2,000 -720 Descending Seattle Center
06:05PM 45.2319 -123.0606 238° Southwest 116 133 1,300 -600 Descending Seattle Center
06:07PM 45.2150 -123.0947 235° Southwest 112 129 800 -360 Descending Seattle Center
06:08PM 45.1992 -123.1347 241° Southwest 113 130 600 240 Descending Seattle Center
06:09PM 45.1897 -123.1753 252° West 119 137 1,400 600 Climbing Seattle Center
06:10PM 45.2158 -123.1650 15° North 109 125 1,900 480 Climbing Seattle Center
06:11PM 45.2369 -123.1411 39° Northeast 100 115 2,400 420 Climbing Seattle Center
06:12PM 45.2578 -123.1144 42° Northeast 99 114 2,800 240 Climbing Seattle Center
06:13PM 45.2800 -123.0844 44° Northeast 102 117 3,000 240 Climbing Seattle Center
06:14PM 45.2806 -123.0442 89° East 108 124 3,400 240 Climbing Seattle Center
06:15PM 45.2522 -123.0647 207° Southwest 134 154 3,500  Climbing Seattle Center
06:16PM 45.2264 -123.1097 231° Southwest 118 136 3,500  Level Seattle Center